createdAt,value
2019-01-30T00:02:12.718Z,9.60
2019-01-30T00:06:11.208Z,9.07
2019-01-30T00:10:11.433Z,11.73
2019-01-30T00:14:09.813Z,12.57
2019-01-30T00:18:08.190Z,9.63
2019-01-30T00:22:06.570Z,10.53
2019-01-30T00:26:04.937Z,15.37
2019-01-30T00:30:04.970Z,11.60
2019-01-30T00:34:03.319Z,16.07
2019-01-30T00:38:01.734Z,15.07
2019-01-30T00:42:00.117Z,14.47
2019-01-30T00:46:02.599Z,9.60
2019-01-30T00:50:00.974Z,10.10
2019-01-30T00:53:59.357Z,10.60
2019-01-30T00:57:57.766Z,9.97
2019-01-30T01:01:56.138Z,12.20
2019-01-30T01:05:54.523Z,10.43
2019-01-30T01:09:52.911Z,8.37
2019-01-30T01:13:51.203Z,8.77
2019-01-30T01:17:49.594Z,7.73
2019-01-30T01:21:47.973Z,8.67
2019-01-30T01:25:46.984Z,10.03
2019-01-30T01:29:45.348Z,9.10
2019-01-30T01:33:43.738Z,11.37
2019-01-30T01:37:42.556Z,8.53
2019-01-30T01:41:40.858Z,8.00
2019-01-30T01:45:39.225Z,13.63
2019-01-30T01:49:37.608Z,6.63
2019-01-30T01:53:35.986Z,8.97
2019-01-30T01:57:34.738Z,8.00
2019-01-30T02:01:37.882Z,8.17
2019-01-30T02:05:36.258Z,7.27
2019-01-30T02:09:34.634Z,9.27
2019-01-30T02:13:33.018Z,6.23
2019-01-30T02:17:31.393Z,8.63
2019-01-30T02:21:29.710Z,9.30
2019-01-30T02:25:28.093Z,8.43
2019-01-30T02:29:26.517Z,16.27
2019-01-30T02:33:27.613Z,7.03
2019-01-30T02:37:25.990Z,10.27
2019-01-30T02:41:24.365Z,9.23
2019-01-30T02:45:26.644Z,11.23
2019-01-30T02:49:25.046Z,13.20
2019-01-30T02:53:23.456Z,8.43
2019-01-30T02:57:22.149Z,10.60
2019-01-30T03:01:20.544Z,12.97
2019-01-30T03:05:18.918Z,11.73
2019-01-30T03:09:17.293Z,9.33
2019-01-30T03:13:15.673Z,7.47
2019-01-30T03:17:16.291Z,11.47
2019-01-30T03:21:14.673Z,9.53
2019-01-30T03:25:15.074Z,9.70
2019-01-30T03:29:13.499Z,10.07
2019-01-30T03:33:11.842Z,8.77
2019-01-30T03:37:10.238Z,11.20
2019-01-30T03:41:08.632Z,9.87
2019-01-30T03:45:09.609Z,10.33
2019-01-30T03:49:07.979Z,9.80
2019-01-30T03:53:06.346Z,11.20
2019-01-30T03:57:04.728Z,9.40
2019-01-30T04:01:05.780Z,13.50
2019-01-30T04:05:13.567Z,11.37
2019-01-30T04:09:11.967Z,8.83
2019-01-30T04:13:10.935Z,9.57
2019-01-30T04:17:09.345Z,7.73
2019-01-30T04:21:07.692Z,10.70
2019-01-30T04:25:07.563Z,9.40
2019-01-30T04:29:05.897Z,9.87
2019-01-30T04:33:06.229Z,13.43
2019-01-30T04:37:04.321Z,12.80
2019-01-30T04:41:05.882Z,15.27
2019-01-30T04:45:07.557Z,9.87
2019-01-30T04:49:17.908Z,18.03
2019-01-30T04:53:16.313Z,11.17
2019-01-30T04:57:14.679Z,15.43
2019-01-30T05:01:13.016Z,10.73
2019-01-30T05:05:12.330Z,15.53
2019-01-30T05:09:10.754Z,13.57
2019-01-30T05:13:12.053Z,12.70
2019-01-30T05:17:10.421Z,11.33
2019-01-30T05:21:08.736Z,13.07
2019-01-30T05:25:08.843Z,11.17
2019-01-30T05:29:07.158Z,18.50
2019-01-30T05:33:05.553Z,12.93
2019-01-30T05:37:03.920Z,14.23
2019-01-30T05:41:02.346Z,14.37
2019-01-30T05:45:00.735Z,17.37
2019-01-30T05:48:59.103Z,12.03
2019-01-30T05:52:57.501Z,13.80
2019-01-30T05:56:58.667Z,12.63
2019-01-30T06:00:57.040Z,13.37
2019-01-30T06:04:55.381Z,13.37
2019-01-30T06:08:53.740Z,23.90
2019-01-30T06:12:52.068Z,22.00
2019-01-30T06:16:55.145Z,18.53
2019-01-30T06:20:53.516Z,18.33
2019-01-30T06:24:53.063Z,15.70
2019-01-30T06:28:51.407Z,18.80
2019-01-30T06:32:52.583Z,17.17
2019-01-30T06:36:50.974Z,19.47
2019-01-30T06:40:49.334Z,24.20
2019-01-30T06:44:48.263Z,18.00
2019-01-30T06:48:46.661Z,12.83
2019-01-30T06:52:45.028Z,23.73
2019-01-30T06:56:43.353Z,15.93
2019-01-30T07:00:41.878Z,12.93
2019-01-30T07:04:40.205Z,15.70
2019-01-30T07:08:38.820Z,13.93
2019-01-30T07:12:37.192Z,12.27
2019-01-30T07:16:35.601Z,16.00
2019-01-30T07:20:35.879Z,13.93
2019-01-30T07:24:34.185Z,15.97
2019-01-30T07:28:32.568Z,14.43
2019-01-30T07:32:42.292Z,13.77
2019-01-30T07:36:38.058Z,15.20
2019-01-30T07:40:36.434Z,18.47
2019-01-30T07:44:34.788Z,14.90
2019-01-30T07:48:33.107Z,18.73
2019-01-30T07:52:32.826Z,15.90
2019-01-30T07:56:31.510Z,19.30
2019-01-30T08:00:30.919Z,19.40
2019-01-30T08:04:30.863Z,18.47
2019-01-30T08:08:29.221Z,18.37
2019-01-30T08:12:27.612Z,23.20
2019-01-30T08:16:25.989Z,19.47
2019-01-30T08:20:24.379Z,21.57
2019-01-30T08:24:22.796Z,19.60
2019-01-30T08:28:21.850Z,21.77
2019-01-30T08:32:22.288Z,23.87
2019-01-30T08:36:20.437Z,20.07
2019-01-30T08:40:18.789Z,19.77
2019-01-30T08:44:17.181Z,19.07
2019-01-30T08:48:15.477Z,21.20
2019-01-30T08:52:13.850Z,20.13
2019-01-30T08:56:12.205Z,22.67
2019-01-30T09:00:13.878Z,20.60
2019-01-30T09:04:12.265Z,21.30
2019-01-30T09:08:13.404Z,22.73
2019-01-30T09:12:12.782Z,18.77
2019-01-30T09:16:11.154Z,25.10
2019-01-30T09:20:17.746Z,24.47
2019-01-30T09:24:16.313Z,20.17
2019-01-30T09:28:14.700Z,23.67
2019-01-30T09:32:14.550Z,22.70
2019-01-30T09:36:12.934Z,21.63
2019-01-30T09:40:14.338Z,25.27
2019-01-30T09:44:12.649Z,19.73
2019-01-30T09:48:18.189Z,25.53
2019-01-30T09:52:26.471Z,22.83
2019-01-30T09:56:16.578Z,24.57
2019-01-30T10:00:32.045Z,18.53
2019-01-30T10:04:30.362Z,23.13
2019-01-30T10:08:28.795Z,22.93
2019-01-30T10:12:27.459Z,22.90
2019-01-30T10:16:25.857Z,22.47
2019-01-30T10:20:26.475Z,26.67
2019-01-30T10:24:24.909Z,22.13
2019-01-30T10:28:23.298Z,20.97
2019-01-30T10:32:21.658Z,20.50
2019-01-30T10:36:20.050Z,21.70
2019-01-30T10:40:22.542Z,23.90
2019-01-30T10:44:20.918Z,23.07
2019-01-30T10:48:19.282Z,20.40
2019-01-30T10:52:24.062Z,24.30
2019-01-30T10:56:22.440Z,24.40
2019-01-30T11:00:26.650Z,22.90
2019-01-30T11:04:25.035Z,21.00
2019-01-30T11:08:25.448Z,21.63
2019-01-30T11:12:23.798Z,22.70
2019-01-30T11:16:22.198Z,27.50
2019-01-30T11:20:22.135Z,28.27
2019-01-30T11:24:20.659Z,23.73
2019-01-30T11:28:19.040Z,19.13
2019-01-30T11:32:17.423Z,27.63
2019-01-30T11:36:15.810Z,21.93
2019-01-30T11:40:17.094Z,20.40
2019-01-30T11:44:15.489Z,27.17
2019-01-30T11:48:16.610Z,25.97
2019-01-30T11:52:15.330Z,23.67
2019-01-30T11:56:13.710Z,27.70
2019-01-30T12:00:19.570Z,23.03
2019-01-30T12:04:18.317Z,23.17
2019-01-30T12:08:17.353Z,23.07
2019-01-30T12:12:16.014Z,25.90
2019-01-30T12:16:14.434Z,22.33
2019-01-30T12:20:13.486Z,26.83
2019-01-30T12:24:12.700Z,22.97
2019-01-30T12:28:11.087Z,25.43
2019-01-30T12:32:09.475Z,26.47
2019-01-30T12:36:07.837Z,26.20
2019-01-30T12:40:09.555Z,25.03
2019-01-30T12:44:08.382Z,24.13
2019-01-30T12:48:10.876Z,25.23
2019-01-30T12:52:09.354Z,25.57
2019-01-30T12:56:07.848Z,26.63
2019-01-30T13:00:18.397Z,34.30
2019-01-30T13:04:17.034Z,27.23
2019-01-30T13:08:15.413Z,29.13
2019-01-30T13:12:13.791Z,23.90
2019-01-30T13:16:12.259Z,27.03
2019-01-30T13:20:16.157Z,27.17
2019-01-30T13:24:14.521Z,32.00
2019-01-30T13:28:12.901Z,26.20
2019-01-30T13:32:12.391Z,29.47
2019-01-30T13:36:10.680Z,24.50
2019-01-30T13:40:12.304Z,23.07
2019-01-30T13:44:27.484Z,28.23
2019-01-30T13:48:25.880Z,24.60
2019-01-30T13:52:24.653Z,30.40
2019-01-30T13:56:23.028Z,27.20
2019-01-30T14:00:32.915Z,25.27
2019-01-30T14:04:31.279Z,25.97
2019-01-30T14:08:29.984Z,27.67
2019-01-30T14:12:28.336Z,26.23
2019-01-30T14:16:26.676Z,30.30
2019-01-30T14:20:25.033Z,29.23
2019-01-30T14:24:23.442Z,30.93
2019-01-30T14:28:21.841Z,29.80
2019-01-30T14:32:20.283Z,30.47
2019-01-30T14:36:18.817Z,30.37
2019-01-30T14:40:20.187Z,27.33
2019-01-30T14:44:18.578Z,38.80
2019-01-30T14:48:16.944Z,28.67
2019-01-30T14:52:15.311Z,26.23
2019-01-30T14:56:13.649Z,23.60
2019-01-30T15:00:30.366Z,23.43
2019-01-30T15:04:28.713Z,25.20
2019-01-30T15:08:27.308Z,34.73
2019-01-30T15:12:25.721Z,24.07
2019-01-30T15:16:24.040Z,34.87
2019-01-30T15:20:25.152Z,31.50
2019-01-30T15:24:23.531Z,30.60
2019-01-30T15:28:21.893Z,29.77
2019-01-30T15:32:20.648Z,32.37
2019-01-30T15:36:19.060Z,38.13
2019-01-30T15:40:21.368Z,32.73
2019-01-30T15:44:19.798Z,36.47
2019-01-30T15:48:18.179Z,40.40
2019-01-30T15:52:16.770Z,62.80
2019-01-30T15:56:16.566Z,35.03
2019-01-30T16:00:18.571Z,36.10
2019-01-30T16:04:17.640Z,30.07
2019-01-30T16:08:16.184Z,35.43
2019-01-30T16:12:14.552Z,38.57
2019-01-30T16:16:20.631Z,38.07
2019-01-30T16:20:18.983Z,36.90
2019-01-30T16:24:17.349Z,33.97
2019-01-30T16:28:15.773Z,37.77
2019-01-30T16:32:14.125Z,34.30
2019-01-30T16:36:12.518Z,35.50
2019-01-30T16:40:14.166Z,32.83
2019-01-30T16:44:12.557Z,32.73
2019-01-30T16:48:10.936Z,36.20
2019-01-30T16:52:09.322Z,35.37
2019-01-30T16:56:07.686Z,37.73
2019-01-30T17:00:17.774Z,40.50
2019-01-30T17:04:16.167Z,40.90
2019-01-30T17:08:14.561Z,31.30
2019-01-30T17:12:15.963Z,25.17
2019-01-30T17:16:14.367Z,38.43
2019-01-30T17:20:20.026Z,44.60
2019-01-30T17:24:18.401Z,31.20
2019-01-30T17:28:16.761Z,37.57
2019-01-30T17:36:19.354Z,50.30
2019-01-30T17:40:21.012Z,54.70
2019-01-30T17:44:21.389Z,56.40
2019-01-30T17:48:19.763Z,54.83
2019-01-30T17:52:18.207Z,55.87
2019-01-30T17:56:16.596Z,64.13
2019-01-30T18:00:34.524Z,74.30
2019-01-30T18:04:32.950Z,68.80
2019-01-30T18:08:31.315Z,66.47
2019-01-30T18:12:30.057Z,69.50
2019-01-30T18:16:28.700Z,59.17
2019-01-30T18:20:29.391Z,55.57
2019-01-30T18:24:28.499Z,50.23
2019-01-30T18:28:28.492Z,54.93
2019-01-30T18:32:26.776Z,54.17
2019-01-30T18:36:25.194Z,47.73
2019-01-30T18:40:31.249Z,51.17
2019-01-30T18:44:29.673Z,45.40
2019-01-30T18:48:28.312Z,53.77
2019-01-30T18:52:26.690Z,43.40
2019-01-30T18:56:25.127Z,53.33
2019-01-30T19:00:34.543Z,47.90
2019-01-30T19:04:32.841Z,40.00
2019-01-30T19:08:31.558Z,50.87
2019-01-30T19:12:30.128Z,51.13
2019-01-30T19:16:28.524Z,54.80
2019-01-30T19:20:29.876Z,44.07
2019-01-30T19:24:29.132Z,53.37
2019-01-30T19:28:27.532Z,44.60
2019-01-30T19:32:25.908Z,50.50
2019-01-30T19:36:24.280Z,53.80
2019-01-30T19:40:24.455Z,49.77
2019-01-30T19:44:22.874Z,49.93
2019-01-30T19:48:21.307Z,46.63
2019-01-30T19:52:19.743Z,50.80
2019-01-30T19:56:18.124Z,43.77
2019-01-30T20:00:22.380Z,55.73
2019-01-30T20:04:20.742Z,55.63
2019-01-30T20:08:19.487Z,52.97
2019-01-30T20:12:17.924Z,60.73
2019-01-30T20:16:16.285Z,59.07
2019-01-30T20:24:36.277Z,56.63
2019-01-30T20:28:34.700Z,57.07
2019-01-30T20:32:34.553Z,53.77
2019-01-30T20:36:32.892Z,59.60
2019-01-30T20:40:31.352Z,51.90
2019-01-30T20:44:29.931Z,53.23
2019-01-30T20:48:28.327Z,46.53
2019-01-30T20:52:28.342Z,47.77
2019-01-30T20:56:27.761Z,45.50
2019-01-30T21:00:34.900Z,48.50
2019-01-30T21:04:34.824Z,51.80
2019-01-30T21:08:53.334Z,44.10
2019-01-30T21:12:51.671Z,44.67
2019-01-30T21:16:50.033Z,46.23
2019-01-30T21:20:48.425Z,37.97
2019-01-30T21:24:47.482Z,37.30
2019-01-30T21:28:45.857Z,39.60
2019-01-30T21:32:44.246Z,40.40
2019-01-30T21:36:42.641Z,33.87
2019-01-30T21:40:41.034Z,30.80
2019-01-30T21:44:39.439Z,27.07
2019-01-30T21:48:37.834Z,23.43
2019-01-30T21:52:36.219Z,29.37
2019-01-30T21:56:34.608Z,25.37
2019-01-30T22:00:33.108Z,26.73
2019-01-30T22:04:31.496Z,22.57
2019-01-30T22:08:38.693Z,19.53
2019-01-30T22:12:37.935Z,27.40
2019-01-30T22:16:36.344Z,24.10
2019-01-30T22:20:34.757Z,23.47
2019-01-30T22:24:33.214Z,27.60
2019-01-30T22:28:31.631Z,28.67
2019-01-30T22:32:34.601Z,32.77
2019-01-30T22:36:30.122Z,32.10
2019-01-30T22:40:28.512Z,38.80
2019-01-30T22:44:26.913Z,36.60
2019-01-30T22:48:25.297Z,37.93
2019-01-30T22:52:23.709Z,40.60
2019-01-30T22:56:26.700Z,36.07
2019-01-30T23:00:57.862Z,36.20
2019-01-30T23:05:11.106Z,41.13
2019-01-30T23:09:38.605Z,40.47
2019-01-30T23:13:40.266Z,41.70
2019-01-30T23:17:53.746Z,41.03
2019-01-30T23:21:55.412Z,32.73
2019-01-30T23:26:05.944Z,28.83
2019-01-30T23:30:25.646Z,31.57
2019-01-30T23:34:59.538Z,40.07
2019-01-30T23:39:12.761Z,36.60
2019-01-30T23:43:23.442Z,41.33
2019-01-30T23:47:34.087Z,33.50
2019-01-30T23:51:52.497Z,34.70
2019-01-30T23:56:08.843Z,30.93
